createdAt,value
2018-09-26T00:00:24.840Z,0.10
2018-09-26T00:02:58.807Z,0.20
2018-09-26T00:05:27.386Z,0.33
2018-09-26T00:07:55.873Z,0.40
2018-09-26T00:10:24.412Z,0.00
2018-09-26T00:12:52.894Z,0.00
2018-09-26T00:15:21.373Z,0.10
2018-09-26T00:17:49.852Z,0.00
2018-09-26T00:20:18.306Z,0.10
2018-09-26T00:22:46.787Z,0.07
2018-09-26T00:25:15.311Z,0.10
2018-09-26T00:27:43.828Z,0.30
2018-09-26T00:30:12.307Z,0.20
2018-09-26T00:32:40.819Z,0.20
2018-09-26T00:35:09.302Z,0.10
2018-09-26T00:37:37.801Z,0.10
2018-09-26T00:40:07.046Z,0.33
2018-09-26T00:42:35.550Z,0.03
2018-09-26T00:45:04.040Z,0.00
2018-09-26T00:47:32.517Z,0.43
2018-09-26T00:50:00.987Z,0.40
2018-09-26T00:52:29.495Z,0.07
2018-09-26T00:54:57.967Z,0.00
2018-09-26T00:57:26.433Z,0.00
2018-09-26T00:59:54.909Z,0.10
2018-09-26T01:02:23.470Z,0.30
2018-09-26T01:04:51.939Z,0.20
2018-09-26T01:07:20.410Z,0.30
2018-09-26T01:09:48.893Z,0.10
2018-09-26T01:12:17.354Z,0.10
2018-09-26T01:14:45.820Z,0.53
2018-09-26T01:17:14.430Z,0.00
2018-09-26T01:19:42.906Z,0.20
2018-09-26T01:22:11.453Z,0.10
2018-09-26T01:24:39.910Z,0.10
2018-09-26T01:27:08.682Z,0.10
2018-09-26T01:29:37.158Z,0.13
2018-09-26T01:32:05.652Z,0.10
2018-09-26T01:34:34.158Z,0.20
2018-09-26T01:37:02.642Z,0.10
2018-09-26T01:39:31.120Z,0.17
2018-09-26T01:41:59.597Z,0.23
2018-09-26T01:44:28.112Z,0.27
2018-09-26T01:46:56.642Z,0.10
2018-09-26T01:49:25.100Z,0.00
2018-09-26T01:51:53.587Z,0.30
2018-09-26T01:54:22.064Z,0.27
2018-09-26T01:56:50.560Z,0.00
2018-09-26T01:59:19.055Z,0.53
2018-09-26T02:01:47.515Z,0.20
2018-09-26T02:04:16.003Z,0.33
2018-09-26T02:06:44.511Z,0.10
2018-09-26T02:09:13.369Z,0.10
2018-09-26T02:11:41.907Z,0.00
2018-09-26T02:14:10.370Z,0.23
2018-09-26T02:16:38.864Z,0.00
2018-09-26T02:19:07.376Z,0.20
2018-09-26T02:21:35.843Z,0.00
2018-09-26T02:24:04.360Z,0.20
2018-09-26T02:26:32.842Z,0.20
2018-09-26T02:29:01.325Z,0.07
2018-09-26T02:31:29.831Z,0.23
2018-09-26T02:33:58.293Z,0.10
2018-09-26T02:36:26.767Z,0.20
2018-09-26T02:38:55.264Z,0.17
2018-09-26T02:41:23.740Z,0.07
2018-09-26T02:43:52.208Z,0.10
2018-09-26T02:46:20.715Z,0.23
2018-09-26T02:48:54.536Z,0.03
2018-09-26T02:51:23.042Z,0.10
2018-09-26T02:53:51.509Z,0.40
2018-09-26T02:56:20.044Z,0.20
2018-09-26T02:58:48.534Z,0.13
2018-09-26T03:01:17.006Z,0.20
2018-09-26T03:03:45.482Z,0.27
2018-09-26T03:06:13.994Z,0.10
2018-09-26T03:08:42.474Z,0.20
2018-09-26T03:11:11.034Z,0.10
2018-09-26T03:13:39.532Z,0.20
2018-09-26T03:16:08.040Z,0.20
2018-09-26T03:18:36.514Z,0.20
2018-09-26T03:21:05.042Z,0.30
2018-09-26T03:23:33.525Z,0.00
2018-09-26T03:26:01.984Z,0.20
2018-09-26T03:28:30.472Z,0.20
2018-09-26T03:30:59.066Z,0.20
2018-09-26T03:33:27.552Z,0.10
2018-09-26T03:35:56.038Z,0.10
2018-09-26T03:38:24.547Z,0.10
2018-09-26T03:40:53.037Z,0.00
2018-09-26T03:43:21.499Z,0.37
2018-09-26T03:45:50.199Z,0.10
2018-09-26T03:48:18.669Z,0.10
2018-09-26T03:50:47.165Z,0.33
2018-09-26T03:53:15.681Z,0.00
2018-09-26T03:55:44.138Z,0.20
2018-09-26T03:58:12.639Z,0.00
2018-09-26T04:00:41.138Z,0.20
2018-09-26T04:03:09.615Z,0.13
2018-09-26T04:05:38.099Z,0.10
2018-09-26T04:08:06.635Z,0.23
2018-09-26T04:10:35.129Z,0.10
2018-09-26T04:13:03.699Z,0.10
2018-09-26T04:15:32.211Z,0.07
2018-09-26T04:18:00.603Z,0.10
2018-09-26T04:20:29.098Z,0.10
2018-09-26T04:22:57.548Z,0.23
2018-09-26T04:25:26.078Z,0.20
2018-09-26T04:27:54.560Z,0.10
2018-09-26T04:30:23.100Z,0.10
2018-09-26T04:32:51.704Z,0.00
2018-09-26T04:35:20.106Z,0.13
2018-09-26T04:37:48.638Z,0.33
2018-09-26T04:40:17.128Z,0.10
2018-09-26T04:42:45.613Z,0.10
2018-09-26T04:45:14.117Z,0.00
2018-09-26T04:47:42.596Z,0.20
2018-09-26T04:50:11.089Z,0.37
2018-09-26T04:52:39.570Z,0.07
2018-09-26T04:55:08.079Z,0.23
2018-09-26T04:57:36.560Z,0.00
2018-09-26T05:00:05.122Z,0.10
2018-09-26T05:02:33.628Z,0.27
2018-09-26T05:05:02.129Z,0.10
2018-09-26T05:07:30.660Z,0.10
2018-09-26T05:09:59.119Z,0.10
2018-09-26T05:12:27.621Z,0.20
2018-09-26T05:14:56.097Z,0.00
2018-09-26T05:17:24.591Z,0.37
2018-09-26T05:19:53.099Z,0.20
2018-09-26T05:22:21.573Z,0.20
2018-09-26T05:24:50.099Z,0.20
2018-09-26T05:27:18.575Z,0.20
2018-09-26T05:29:47.035Z,0.20
2018-09-26T05:32:15.529Z,0.10
2018-09-26T05:34:43.992Z,0.13
2018-09-26T05:37:12.673Z,0.17
2018-09-26T05:39:41.183Z,0.10
2018-09-26T05:42:09.659Z,0.20
2018-09-26T05:44:38.234Z,0.37
2018-09-26T05:47:06.964Z,0.30
2018-09-26T05:49:35.446Z,0.20
2018-09-26T05:52:04.117Z,3.13
2018-09-26T05:54:32.615Z,0.33
2018-09-26T05:57:01.102Z,0.07
2018-09-26T05:59:29.575Z,0.37
2018-09-26T06:01:58.044Z,0.00
2018-09-26T06:04:26.552Z,0.10
2018-09-26T06:06:55.079Z,0.10
2018-09-26T06:09:23.577Z,0.27
2018-09-26T06:11:52.093Z,0.50
2018-09-26T06:14:20.640Z,0.00
2018-09-26T06:16:49.109Z,0.20
2018-09-26T06:19:17.584Z,0.30
2018-09-26T06:21:46.056Z,0.20
2018-09-26T06:24:14.550Z,0.30
2018-09-26T06:26:43.022Z,0.20
2018-09-26T06:29:11.514Z,0.33
2018-09-26T06:31:40.032Z,0.27
2018-09-26T06:34:08.520Z,0.20
2018-09-26T06:36:37.039Z,0.27
2018-09-26T06:39:08.718Z,0.30
2018-09-26T06:41:37.184Z,0.70
2018-09-26T06:44:05.693Z,0.43
2018-09-26T06:46:34.184Z,0.20
2018-09-26T06:49:02.692Z,0.60
2018-09-26T06:51:31.182Z,0.20
2018-09-26T06:54:00.121Z,0.30
2018-09-26T06:56:28.535Z,0.33
2018-09-26T06:58:57.051Z,0.27
2018-09-26T07:01:25.538Z,0.10
2018-09-26T07:03:54.055Z,0.20
2018-09-26T07:06:22.537Z,0.20
2018-09-26T07:08:51.025Z,0.30
2018-09-26T07:11:19.509Z,0.23
2018-09-26T07:13:48.010Z,0.27
2018-09-26T07:16:16.507Z,0.60
2018-09-26T07:18:44.979Z,0.60
2018-09-26T07:21:13.496Z,0.60
2018-09-26T07:23:41.999Z,0.63
2018-09-26T07:26:10.531Z,0.50
2018-09-26T07:28:39.039Z,0.70
2018-09-26T07:31:07.532Z,1.03
2018-09-26T07:33:36.021Z,0.53
2018-09-26T07:36:04.549Z,0.80
2018-09-26T07:38:33.154Z,0.50
2018-09-26T07:41:01.582Z,0.37
2018-09-26T07:43:30.100Z,0.60
2018-09-26T07:45:58.573Z,0.20
2018-09-26T07:48:27.038Z,0.60
2018-09-26T07:50:55.532Z,0.63
2018-09-26T07:53:24.027Z,0.60
2018-09-26T07:55:52.516Z,0.50
2018-09-26T07:58:21.009Z,0.50
2018-09-26T08:00:49.520Z,0.77
2018-09-26T08:03:18.004Z,0.50
2018-09-26T08:05:46.531Z,0.60
2018-09-26T08:08:14.999Z,0.30
2018-09-26T08:10:43.473Z,0.50
2018-09-26T08:13:11.948Z,0.70
2018-09-26T08:15:40.433Z,0.50
2018-09-26T08:18:09.022Z,0.87
2018-09-26T08:20:37.453Z,0.40
2018-09-26T08:23:05.941Z,0.67
2018-09-26T08:25:34.409Z,0.60
2018-09-26T08:28:02.874Z,0.53
2018-09-26T08:30:31.420Z,0.50
2018-09-26T08:32:59.897Z,0.73
2018-09-26T08:35:28.405Z,0.70
2018-09-26T08:37:56.909Z,0.60
2018-09-26T08:40:25.405Z,0.93
2018-09-26T08:42:53.939Z,0.50
2018-09-26T08:45:22.507Z,0.60
2018-09-26T08:47:50.994Z,0.93
2018-09-26T08:50:19.479Z,0.60
2018-09-26T08:52:47.950Z,0.70
2018-09-26T08:55:16.448Z,0.80
2018-09-26T08:57:44.961Z,0.60
2018-09-26T09:00:13.439Z,0.67
2018-09-26T09:02:41.929Z,1.00
2018-09-26T09:05:10.431Z,0.83
2018-09-26T09:07:38.951Z,0.77
2018-09-26T09:10:07.434Z,0.77
2018-09-26T09:12:35.931Z,0.50
2018-09-26T09:15:04.542Z,0.57
2018-09-26T09:17:33.031Z,0.70
2018-09-26T09:20:01.606Z,0.87
2018-09-26T09:22:30.092Z,0.70
2018-09-26T09:24:58.600Z,0.70
2018-09-26T09:27:27.168Z,0.80
2018-09-26T09:29:55.650Z,0.50
2018-09-26T09:32:24.164Z,0.67
2018-09-26T09:34:52.625Z,0.60
2018-09-26T09:37:21.104Z,0.30
2018-09-26T09:39:49.652Z,0.70
2018-09-26T09:42:18.134Z,0.70
2018-09-26T09:44:46.590Z,1.13
2018-09-26T09:47:15.105Z,0.70
2018-09-26T09:49:43.612Z,0.70
2018-09-26T09:52:12.131Z,0.53
2018-09-26T09:54:40.631Z,0.50
2018-09-26T09:57:09.117Z,0.50
2018-09-26T09:59:37.798Z,0.70
2018-09-26T10:02:06.420Z,0.80
2018-09-26T10:04:34.839Z,0.47
2018-09-26T10:07:03.343Z,0.60
2018-09-26T10:09:31.832Z,0.37
2018-09-26T10:12:00.312Z,0.60
2018-09-26T10:14:28.836Z,0.67
2018-09-26T10:16:57.295Z,0.60
2018-09-26T10:19:25.685Z,0.80
2018-09-26T10:21:54.140Z,0.80
2018-09-26T10:24:22.525Z,1.20
2018-09-26T10:26:50.924Z,0.73
2018-09-26T10:29:19.311Z,0.57
2018-09-26T10:31:47.708Z,0.67
2018-09-26T10:34:16.125Z,0.67
2018-09-26T10:36:44.507Z,0.83
2018-09-26T10:39:12.896Z,0.30
2018-09-26T10:41:41.320Z,0.53
2018-09-26T10:44:09.731Z,0.70
2018-09-26T10:46:38.139Z,0.70
2018-09-26T10:49:06.556Z,0.63
2018-09-26T10:51:34.960Z,0.67
2018-09-26T10:54:03.365Z,1.10
2018-09-26T10:56:31.844Z,0.60
2018-09-26T10:59:00.260Z,0.70
2018-09-26T11:01:28.654Z,1.00
2018-09-26T11:03:57.058Z,0.80
2018-09-26T11:06:25.460Z,0.67
2018-09-26T11:08:53.856Z,0.73
2018-09-26T11:11:22.262Z,0.50
2018-09-26T11:13:50.626Z,0.80
2018-09-26T11:16:19.076Z,0.93
2018-09-26T11:18:47.455Z,0.60
2018-09-26T11:21:15.855Z,0.90
2018-09-26T11:23:44.262Z,0.77
2018-09-26T11:26:12.693Z,0.50
2018-09-26T11:28:41.111Z,0.80
2018-09-26T11:31:09.514Z,0.67
2018-09-26T11:33:37.973Z,0.60
2018-09-26T11:36:06.601Z,0.80
2018-09-26T11:38:35.024Z,0.70
2018-09-26T11:41:03.437Z,0.53
2018-09-26T11:43:31.836Z,0.80
2018-09-26T11:46:00.247Z,0.77
2018-09-26T11:48:28.633Z,0.50
2018-09-26T11:50:57.020Z,0.70
2018-09-26T11:53:25.406Z,0.63
2018-09-26T11:55:53.795Z,0.40
2018-09-26T11:58:22.291Z,0.80
2018-09-26T12:00:50.645Z,0.80
2018-09-26T12:03:19.052Z,0.53
2018-09-26T12:05:47.447Z,0.40
2018-09-26T12:08:15.862Z,0.60
2018-09-26T12:10:44.248Z,0.57
2018-09-26T12:13:12.624Z,0.40
2018-09-26T12:15:41.018Z,0.37
2018-09-26T12:18:09.455Z,0.53
2018-09-26T12:20:37.824Z,0.30
2018-09-26T12:23:06.332Z,0.47
2018-09-26T12:25:34.792Z,0.60
2018-09-26T12:28:03.211Z,0.37
2018-09-26T12:30:31.626Z,0.50
2018-09-26T12:33:00.018Z,0.50
2018-09-26T12:35:28.407Z,0.30
2018-09-26T12:37:56.801Z,0.30
2018-09-26T12:40:25.320Z,0.50
2018-09-26T12:42:53.705Z,0.30
2018-09-26T12:45:22.053Z,0.57
2018-09-26T12:47:50.461Z,0.53
2018-09-26T12:50:18.861Z,0.63
2018-09-26T12:52:47.257Z,0.70
2018-09-26T12:55:15.644Z,0.33
2018-09-26T12:57:44.027Z,0.60
2018-09-26T13:00:12.465Z,0.50
2018-09-26T13:02:40.871Z,0.63
2018-09-26T13:05:09.287Z,1.53
2018-09-26T13:07:37.686Z,0.77
2018-09-26T13:10:06.146Z,0.60
2018-09-26T13:12:34.540Z,0.90
2018-09-26T13:15:02.991Z,0.50
2018-09-26T13:17:31.419Z,0.50
2018-09-26T13:19:59.845Z,0.43
2018-09-26T13:22:28.248Z,0.60
2018-09-26T13:24:56.659Z,0.57
2018-09-26T13:27:25.091Z,0.70
2018-09-26T13:29:53.504Z,0.80
2018-09-26T13:32:21.938Z,0.90
2018-09-26T13:34:50.355Z,0.93
2018-09-26T13:37:18.756Z,0.60
2018-09-26T13:39:47.163Z,0.80
2018-09-26T13:42:15.578Z,1.10
2018-09-26T13:44:44.005Z,1.17
2018-09-26T13:47:12.408Z,0.83
2018-09-26T13:49:40.792Z,1.50
2018-09-26T13:52:09.206Z,0.80
2018-09-26T13:54:37.598Z,0.83
2018-09-26T13:57:06.068Z,0.80
2018-09-26T13:59:34.470Z,0.90
2018-09-26T14:02:02.873Z,0.73
2018-09-26T14:04:31.300Z,0.60
2018-09-26T14:06:59.704Z,0.67
2018-09-26T14:09:28.106Z,0.83
2018-09-26T14:11:56.496Z,0.63
2018-09-26T14:14:24.929Z,1.17
2018-09-26T14:16:53.304Z,1.17
2018-09-26T14:19:21.692Z,1.00
2018-09-26T14:21:50.082Z,1.17
2018-09-26T14:24:18.479Z,1.13
2018-09-26T14:26:46.907Z,0.90
2018-09-26T14:29:15.294Z,1.27
2018-09-26T14:31:43.710Z,1.30
2018-09-26T14:34:12.100Z,1.10
2018-09-26T14:36:40.512Z,1.40
2018-09-26T14:39:09.119Z,1.00
2018-09-26T14:41:37.453Z,1.40
2018-09-26T14:44:05.934Z,1.20
2018-09-26T14:46:34.376Z,1.60
2018-09-26T14:49:02.835Z,1.00
2018-09-26T14:51:31.215Z,1.27
2018-09-26T14:53:59.623Z,1.00
2018-09-26T14:56:28.065Z,1.00
2018-09-26T14:58:56.453Z,1.17
2018-09-26T15:01:24.856Z,1.10
2018-09-26T15:03:53.275Z,1.20
2018-09-26T15:06:21.756Z,1.10
2018-09-26T15:08:50.149Z,1.20
2018-09-26T15:11:18.515Z,1.00
2018-09-26T15:13:46.920Z,1.03
2018-09-26T15:16:15.388Z,0.93
2018-09-26T15:18:43.736Z,1.30
2018-09-26T15:21:12.134Z,1.00
2018-09-26T15:23:40.523Z,1.20
2018-09-26T15:26:08.996Z,0.90
2018-09-26T15:28:37.452Z,0.90
2018-09-26T15:31:05.796Z,0.83
2018-09-26T15:33:34.213Z,1.03
2018-09-26T15:36:02.632Z,0.90
2018-09-26T15:38:31.016Z,0.70
2018-09-26T15:40:59.424Z,0.97
2018-09-26T15:43:27.817Z,0.83
2018-09-26T15:45:56.209Z,0.80
2018-09-26T15:48:24.662Z,1.00
2018-09-26T15:50:53.028Z,0.90
2018-09-26T15:53:21.427Z,0.80
2018-09-26T15:55:49.835Z,0.73
2018-09-26T15:58:18.285Z,0.57
2018-09-26T16:00:46.669Z,0.70
2018-09-26T16:03:15.084Z,0.87
2018-09-26T16:05:43.492Z,0.50
2018-09-26T16:08:11.916Z,0.70
2018-09-26T16:10:40.334Z,1.30
2018-09-26T16:13:08.912Z,1.03
2018-09-26T16:15:37.304Z,1.27
2018-09-26T16:18:05.759Z,0.70
2018-09-26T16:20:34.207Z,0.90
2018-09-26T16:23:02.614Z,0.70
2018-09-26T16:25:31.086Z,1.13
2018-09-26T16:27:59.436Z,0.97
2018-09-26T16:30:27.882Z,0.70
2018-09-26T16:32:56.271Z,1.00
2018-09-26T16:35:24.761Z,0.60
2018-09-26T16:37:53.206Z,0.60
2018-09-26T16:40:21.670Z,0.70
2018-09-26T16:42:50.007Z,0.47
2018-09-26T16:45:18.472Z,0.83
2018-09-26T16:47:47.016Z,0.67
2018-09-26T16:50:15.487Z,0.63
2018-09-26T16:52:43.832Z,1.60
2018-09-26T16:55:12.227Z,1.03
2018-09-26T16:57:40.627Z,0.77
2018-09-26T17:00:09.075Z,1.90
2018-09-26T17:02:37.468Z,1.10
2018-09-26T17:05:05.887Z,1.98
2018-09-26T17:07:34.323Z,2.17
2018-09-26T17:10:02.748Z,1.53
2018-09-26T17:12:31.178Z,0.73
2018-09-26T17:14:59.589Z,0.83
2018-09-26T17:17:28.026Z,0.83
2018-09-26T17:19:56.454Z,0.93
2018-09-26T17:22:24.980Z,0.70
2018-09-26T17:24:53.250Z,0.77
2018-09-26T17:27:21.664Z,0.70
2018-09-26T17:29:50.054Z,0.63
2018-09-26T17:32:18.583Z,0.53
2018-09-26T17:34:46.913Z,0.70
2018-09-26T17:37:15.327Z,1.00
2018-09-26T17:39:43.734Z,0.57
2018-09-26T17:42:12.173Z,1.02
2018-09-26T17:44:40.571Z,1.50
2018-09-26T17:47:09.002Z,0.80
2018-09-26T17:49:37.417Z,0.60
2018-09-26T17:52:05.827Z,0.70
2018-09-26T17:54:34.292Z,0.60
2018-09-26T17:57:02.655Z,1.00
2018-09-26T17:59:31.050Z,1.00
2018-09-26T18:01:59.473Z,0.90
2018-09-26T18:04:27.890Z,0.67
2018-09-26T18:06:56.309Z,0.40
2018-09-26T18:09:24.716Z,0.40
2018-09-26T18:11:53.111Z,0.67
2018-09-26T18:14:21.580Z,0.53
2018-09-26T18:16:49.976Z,0.50
2018-09-26T18:19:18.367Z,0.47
2018-09-26T18:21:46.785Z,0.90
2018-09-26T18:24:15.199Z,0.30
2018-09-26T18:26:43.624Z,0.40
2018-09-26T18:29:12.038Z,0.70
2018-09-26T18:31:40.441Z,0.70
2018-09-26T18:34:08.856Z,0.30
2018-09-26T18:36:37.260Z,0.80
2018-09-26T18:39:07.553Z,0.83
2018-09-26T18:41:35.933Z,0.97
2018-09-26T18:44:04.360Z,0.40
2018-09-26T18:46:32.776Z,0.40
2018-09-26T18:49:01.192Z,0.50
2018-09-26T18:51:29.608Z,0.30
2018-09-26T18:53:58.078Z,0.30
2018-09-26T18:56:26.534Z,0.60
2018-09-26T18:58:55.022Z,0.53
2018-09-26T19:01:23.426Z,0.40
2018-09-26T19:03:51.852Z,0.20
2018-09-26T19:06:20.276Z,0.50
2018-09-26T19:08:48.678Z,0.43
2018-09-26T19:11:17.154Z,0.70
2018-09-26T19:13:45.559Z,0.40
2018-09-26T19:16:13.983Z,0.67
2018-09-26T19:18:42.425Z,0.60
2018-09-26T19:21:11.012Z,0.77
2018-09-26T19:23:39.411Z,0.63
2018-09-26T19:26:07.891Z,0.30
2018-09-26T19:28:36.379Z,0.80
2018-09-26T19:31:04.826Z,0.60
2018-09-26T19:33:33.247Z,0.33
2018-09-26T19:36:01.696Z,0.50
2018-09-26T19:38:30.085Z,0.70
2018-09-26T19:40:58.483Z,0.63
2018-09-26T19:43:26.901Z,0.93
2018-09-26T19:45:55.333Z,0.50
2018-09-26T19:48:23.755Z,0.47
2018-09-26T19:50:52.180Z,0.43
2018-09-26T19:53:21.076Z,0.50
2018-09-26T19:55:49.743Z,0.50
2018-09-26T19:58:18.149Z,0.40
2018-09-26T20:00:46.624Z,0.53
2018-09-26T20:03:19.358Z,0.43
2018-09-26T20:05:47.848Z,0.90
2018-09-26T20:08:16.248Z,0.23
2018-09-26T20:10:44.660Z,0.97
2018-09-26T20:13:13.131Z,0.50
2018-09-26T20:15:41.560Z,0.43
2018-09-26T20:18:09.996Z,0.40
2018-09-26T20:20:38.518Z,0.87
2018-09-26T20:23:07.185Z,0.40
2018-09-26T20:25:36.364Z,0.70
2018-09-26T20:28:04.949Z,0.50
2018-09-26T20:30:33.348Z,0.90
2018-09-26T20:33:01.844Z,0.23
2018-09-26T20:35:30.474Z,0.87
2018-09-26T20:37:58.848Z,0.67
2018-09-26T20:40:27.256Z,0.47
2018-09-26T20:42:55.667Z,0.17
2018-09-26T20:45:24.114Z,0.60
2018-09-26T20:47:52.515Z,0.77
2018-09-26T20:50:20.936Z,0.30
2018-09-26T20:52:49.339Z,0.20
2018-09-26T20:55:17.755Z,0.33
2018-09-26T20:57:46.138Z,0.50
2018-09-26T21:00:14.671Z,0.50
2018-09-26T21:02:43.181Z,0.80
2018-09-26T21:05:12.002Z,0.57
2018-09-26T21:07:40.486Z,0.37
2018-09-26T21:10:09.548Z,0.33
2018-09-26T21:12:37.931Z,0.40
2018-09-26T21:15:06.388Z,0.30
2018-09-26T21:17:34.923Z,0.30
2018-09-26T21:20:03.634Z,0.47
2018-09-26T21:22:32.044Z,0.60
2018-09-26T21:25:00.796Z,0.43
2018-09-26T21:27:29.302Z,0.30
2018-09-26T21:29:57.750Z,0.10
2018-09-26T21:32:26.186Z,0.57
2018-09-26T21:34:54.605Z,0.20
2018-09-26T21:37:23.006Z,0.47
2018-09-26T21:39:51.416Z,0.07
2018-09-26T21:42:19.815Z,0.40
2018-09-26T21:44:48.219Z,0.20
2018-09-26T21:47:16.631Z,0.23
2018-09-26T21:49:45.056Z,0.50
2018-09-26T21:52:13.452Z,0.10
2018-09-26T21:54:41.839Z,0.43
2018-09-26T21:57:10.231Z,0.13
2018-09-26T21:59:38.646Z,0.37
2018-09-26T22:02:07.561Z,0.27
2018-09-26T22:04:36.478Z,0.30
2018-09-26T22:07:05.427Z,0.50
2018-09-26T22:09:34.308Z,0.50
2018-09-26T22:12:03.214Z,0.20
2018-09-26T22:14:32.116Z,0.20
2018-09-26T22:17:01.076Z,0.17
2018-09-26T22:19:30.000Z,0.33
2018-09-26T22:21:58.938Z,0.17
2018-09-26T22:24:27.840Z,0.17
2018-09-26T22:26:56.838Z,0.30
2018-09-26T22:29:25.772Z,0.33
2018-09-26T22:31:55.080Z,0.57
2018-09-26T22:34:24.239Z,0.40
2018-09-26T22:36:53.189Z,0.23
2018-09-26T22:39:22.451Z,0.10
2018-09-26T22:41:51.360Z,0.40
2018-09-26T22:44:20.255Z,0.50
2018-09-26T22:46:49.158Z,0.23
2018-09-26T22:49:18.034Z,0.47
2018-09-26T22:51:46.980Z,0.10
2018-09-26T22:54:15.883Z,0.23
2018-09-26T22:56:44.802Z,0.10
2018-09-26T22:59:13.695Z,0.73
2018-09-26T23:01:42.632Z,0.30
2018-09-26T23:04:11.523Z,0.23
2018-09-26T23:06:40.421Z,0.20
2018-09-26T23:09:11.235Z,0.07
2018-09-26T23:11:40.133Z,0.30
2018-09-26T23:14:09.049Z,0.30
2018-09-26T23:16:37.949Z,0.10
2018-09-26T23:19:07.171Z,0.27
2018-09-26T23:21:36.087Z,0.40
2018-09-26T23:24:05.007Z,0.10
2018-09-26T23:26:33.935Z,0.40
2018-09-26T23:29:02.875Z,0.50
2018-09-26T23:31:31.763Z,0.20
2018-09-26T23:34:00.664Z,0.40
2018-09-26T23:36:29.579Z,0.20
2018-09-26T23:38:58.471Z,0.13
2018-09-26T23:41:27.377Z,0.20
2018-09-26T23:43:56.283Z,0.20
2018-09-26T23:46:25.177Z,0.30
2018-09-26T23:48:54.067Z,0.47
2018-09-26T23:51:23.031Z,0.13
2018-09-26T23:53:52.041Z,0.30
2018-09-26T23:56:20.957Z,0.20
2018-09-26T23:58:49.861Z,0.40
